sensor_id;sensor_type;location;lat;lon;timestamp;P1;durP1;ratioP1;P2;durP2;ratioP2
7807;SDS011;3949;49.254;8.894;2022-10-17T00:00:48;5.10;;;3.67;;
7807;SDS011;3949;49.254;8.894;2022-10-17T00:03:15;4.40;;;4.00;;
7807;SDS011;3949;49.254;8.894;2022-10-17T00:05:41;4.50;;;4.10;;
7807;SDS011;3949;49.254;8.894;2022-10-17T00:08:08;6.20;;;3.70;;
7807;SDS011;3949;49.254;8.894;2022-10-17T00:10:34;8.73;;;4.30;;
7807;SDS011;3949;49.254;8.894;2022-10-17T00:13:00;7.07;;;4.17;;
7807;SDS011;3949;49.254;8.894;2022-10-17T00:15:27;4.67;;;3.57;;
7807;SDS011;3949;49.254;8.894;2022-10-17T00:17:53;5.53;;;3.73;;
7807;SDS011;3949;49.254;8.894;2022-10-17T00:20:19;3.80;;;3.50;;
7807;SDS011;3949;49.254;8.894;2022-10-17T00:22:45;3.70;;;3.13;;
7807;SDS011;3949;49.254;8.894;2022-10-17T00:25:11;9.00;;;3.77;;
7807;SDS011;3949;49.254;8.894;2022-10-17T00:27:37;6.83;;;3.57;;
7807;SDS011;3949;49.254;8.894;2022-10-17T00:30:04;10.27;;;5.10;;
7807;SDS011;3949;49.254;8.894;2022-10-17T00:32:31;3.43;;;2.97;;
7807;SDS011;3949;49.254;8.894;2022-10-17T00:34:57;4.20;;;3.50;;
7807;SDS011;3949;49.254;8.894;2022-10-17T00:37:23;4.40;;;3.57;;
7807;SDS011;3949;49.254;8.894;2022-10-17T00:39:49;3.37;;;3.00;;
7807;SDS011;3949;49.254;8.894;2022-10-17T00:42:15;4.97;;;3.23;;
7807;SDS011;3949;49.254;8.894;2022-10-17T00:47:11;4.87;;;3.50;;
7807;SDS011;3949;49.254;8.894;2022-10-17T00:49:38;3.73;;;3.43;;
7807;SDS011;3949;49.254;8.894;2022-10-17T00:52:07;4.13;;;3.60;;
7807;SDS011;3949;49.254;8.894;2022-10-17T00:54:34;5.03;;;3.87;;
7807;SDS011;3949;49.254;8.894;2022-10-17T00:57:02;6.57;;;3.93;;
7807;SDS011;3949;49.254;8.894;2022-10-17T00:59:28;7.03;;;4.53;;
7807;SDS011;3949;49.254;8.894;2022-10-17T01:04:30;5.57;;;4.47;;
7807;SDS011;3949;49.254;8.894;2022-10-17T01:06:56;5.57;;;4.00;;
7807;SDS011;3949;49.254;8.894;2022-10-17T01:09:22;6.17;;;4.57;;
7807;SDS011;3949;49.254;8.894;2022-10-17T01:11:50;5.90;;;5.30;;
7807;SDS011;3949;49.254;8.894;2022-10-17T01:22:02;4.90;;;4.37;;
7807;SDS011;3949;49.254;8.894;2022-10-17T01:24:45;8.70;;;4.60;;
7807;SDS011;3949;49.254;8.894;2022-10-17T01:32:38;4.20;;;3.80;;
7807;SDS011;3949;49.254;8.894;2022-10-17T01:37:39;4.60;;;4.00;;
7807;SDS011;3949;49.254;8.894;2022-10-17T01:40:24;6.13;;;4.33;;
7807;SDS011;3949;49.254;8.894;2022-10-17T01:42:58;5.00;;;4.03;;
7807;SDS011;3949;49.254;8.894;2022-10-17T01:45:28;6.23;;;3.77;;
7807;SDS011;3949;49.254;8.894;2022-10-17T01:47:56;4.77;;;4.03;;
7807;SDS011;3949;49.254;8.894;2022-10-17T01:50:25;6.43;;;4.23;;
7807;SDS011;3949;49.254;8.894;2022-10-17T01:52:58;4.47;;;3.80;;
7807;SDS011;3949;49.254;8.894;2022-10-17T01:55:27;3.80;;;3.47;;
7807;SDS011;3949;49.254;8.894;2022-10-17T01:57:55;6.00;;;4.73;;
7807;SDS011;3949;49.254;8.894;2022-10-17T02:00:22;4.60;;;4.13;;
7807;SDS011;3949;49.254;8.894;2022-10-17T02:02:57;7.60;;;4.40;;
7807;SDS011;3949;49.254;8.894;2022-10-17T02:05:25;7.93;;;4.90;;
7807;SDS011;3949;49.254;8.894;2022-10-17T02:07:52;5.20;;;4.67;;
7807;SDS011;3949;49.254;8.894;2022-10-17T02:10:21;5.83;;;4.67;;
7807;SDS011;3949;49.254;8.894;2022-10-17T02:15:45;6.70;;;5.80;;
7807;SDS011;3949;49.254;8.894;2022-10-17T02:18:19;6.63;;;4.77;;
7807;SDS011;3949;49.254;8.894;2022-10-17T02:20:50;5.07;;;4.23;;
7807;SDS011;3949;49.254;8.894;2022-10-17T02:23:30;5.20;;;4.50;;
7807;SDS011;3949;49.254;8.894;2022-10-17T02:28:30;6.13;;;4.30;;
7807;SDS011;3949;49.254;8.894;2022-10-17T02:31:02;4.93;;;4.40;;
7807;SDS011;3949;49.254;8.894;2022-10-17T02:33:33;7.03;;;5.07;;
7807;SDS011;3949;49.254;8.894;2022-10-17T02:36:03;7.40;;;5.17;;
7807;SDS011;3949;49.254;8.894;2022-10-17T02:38:30;5.50;;;5.00;;
7807;SDS011;3949;49.254;8.894;2022-10-17T02:40:57;4.80;;;4.23;;
7807;SDS011;3949;49.254;8.894;2022-10-17T02:43:23;4.83;;;4.23;;
7807;SDS011;3949;49.254;8.894;2022-10-17T02:45:50;4.50;;;4.10;;
7807;SDS011;3949;49.254;8.894;2022-10-17T02:48:21;4.60;;;4.20;;
7807;SDS011;3949;49.254;8.894;2022-10-17T02:51:06;4.13;;;3.80;;
7807;SDS011;3949;49.254;8.894;2022-10-17T02:56:02;7.50;;;5.40;;
7807;SDS011;3949;49.254;8.894;2022-10-17T02:58:31;7.07;;;5.30;;
7807;SDS011;3949;49.254;8.894;2022-10-17T03:00:58;7.63;;;5.90;;
7807;SDS011;3949;49.254;8.894;2022-10-17T03:03:25;8.17;;;6.20;;
7807;SDS011;3949;49.254;8.894;2022-10-17T03:05:52;7.20;;;5.77;;
7807;SDS011;3949;49.254;8.894;2022-10-17T03:08:18;6.90;;;5.07;;
7807;SDS011;3949;49.254;8.894;2022-10-17T03:10:45;7.67;;;6.77;;
7807;SDS011;3949;49.254;8.894;2022-10-17T03:13:11;13.30;;;11.90;;
7807;SDS011;3949;49.254;8.894;2022-10-17T03:15:37;11.07;;;9.30;;
7807;SDS011;3949;49.254;8.894;2022-10-17T03:18:03;6.57;;;5.73;;
7807;SDS011;3949;49.254;8.894;2022-10-17T03:20:29;6.07;;;5.50;;
7807;SDS011;3949;49.254;8.894;2022-10-17T03:22:55;5.93;;;5.43;;
7807;SDS011;3949;49.254;8.894;2022-10-17T03:25:21;7.73;;;5.03;;
7807;SDS011;3949;49.254;8.894;2022-10-17T03:27:47;4.93;;;4.33;;
7807;SDS011;3949;49.254;8.894;2022-10-17T03:30:13;6.50;;;4.67;;
7807;SDS011;3949;49.254;8.894;2022-10-17T03:32:39;6.03;;;4.77;;
7807;SDS011;3949;49.254;8.894;2022-10-17T03:35:05;7.80;;;5.20;;
7807;SDS011;3949;49.254;8.894;2022-10-17T03:37:31;8.13;;;5.07;;
7807;SDS011;3949;49.254;8.894;2022-10-17T03:39:57;5.97;;;4.60;;
7807;SDS011;3949;49.254;8.894;2022-10-17T03:42:23;4.97;;;4.57;;
7807;SDS011;3949;49.254;8.894;2022-10-17T03:44:49;4.90;;;4.30;;
7807;SDS011;3949;49.254;8.894;2022-10-17T03:47:15;4.83;;;4.30;;
7807;SDS011;3949;49.254;8.894;2022-10-17T03:49:41;7.70;;;3.90;;
7807;SDS011;3949;49.254;8.894;2022-10-17T03:52:13;5.93;;;4.23;;
7807;SDS011;3949;49.254;8.894;2022-10-17T03:54:39;4.70;;;3.83;;
7807;SDS011;3949;49.254;8.894;2022-10-17T03:57:05;4.20;;;3.80;;
7807;SDS011;3949;49.254;8.894;2022-10-17T03:59:31;5.83;;;4.47;;
7807;SDS011;3949;49.254;8.894;2022-10-17T04:01:57;5.30;;;4.07;;
7807;SDS011;3949;49.254;8.894;2022-10-17T04:04:23;6.17;;;4.50;;
7807;SDS011;3949;49.254;8.894;2022-10-17T04:06:49;4.80;;;4.30;;
7807;SDS011;3949;49.254;8.894;2022-10-17T04:09:15;5.87;;;4.43;;
7807;SDS011;3949;49.254;8.894;2022-10-17T04:11:41;4.77;;;4.37;;
7807;SDS011;3949;49.254;8.894;2022-10-17T04:14:08;8.17;;;4.27;;
7807;SDS011;3949;49.254;8.894;2022-10-17T04:16:34;4.90;;;4.40;;
7807;SDS011;3949;49.254;8.894;2022-10-17T04:19:00;6.40;;;4.53;;
7807;SDS011;3949;49.254;8.894;2022-10-17T04:21:26;6.03;;;4.70;;
7807;SDS011;3949;49.254;8.894;2022-10-17T04:23:56;5.30;;;4.50;;
7807;SDS011;3949;49.254;8.894;2022-10-17T04:26:22;5.60;;;4.67;;
7807;SDS011;3949;49.254;8.894;2022-10-17T04:28:48;5.67;;;4.30;;
7807;SDS011;3949;49.254;8.894;2022-10-17T04:31:15;4.13;;;3.73;;
7807;SDS011;3949;49.254;8.894;2022-10-17T04:33:42;3.70;;;3.40;;
7807;SDS011;3949;49.254;8.894;2022-10-17T04:36:12;4.87;;;4.47;;
7807;SDS011;3949;49.254;8.894;2022-10-17T04:38:38;3.80;;;3.50;;
7807;SDS011;3949;49.254;8.894;2022-10-17T04:41:06;6.53;;;3.70;;
7807;SDS011;3949;49.254;8.894;2022-10-17T04:43:32;6.63;;;4.93;;
7807;SDS011;3949;49.254;8.894;2022-10-17T04:45:59;5.07;;;4.57;;
7807;SDS011;3949;49.254;8.894;2022-10-17T04:48:26;4.47;;;4.07;;
7807;SDS011;3949;49.254;8.894;2022-10-17T04:50:57;5.87;;;4.60;;
7807;SDS011;3949;49.254;8.894;2022-10-17T04:53:23;4.30;;;4.00;;
7807;SDS011;3949;49.254;8.894;2022-10-17T04:55:50;4.90;;;4.50;;
7807;SDS011;3949;49.254;8.894;2022-10-17T04:58:16;8.43;;;5.10;;
7807;SDS011;3949;49.254;8.894;2022-10-17T05:00:42;7.40;;;4.97;;
7807;SDS011;3949;49.254;8.894;2022-10-17T05:03:08;11.77;;;6.40;;
7807;SDS011;3949;49.254;8.894;2022-10-17T05:05:38;6.87;;;5.20;;
7807;SDS011;3949;49.254;8.894;2022-10-17T05:08:04;10.30;;;5.27;;
7807;SDS011;3949;49.254;8.894;2022-10-17T05:10:34;9.53;;;5.30;;
7807;SDS011;3949;49.254;8.894;2022-10-17T05:13:01;7.60;;;5.10;;
7807;SDS011;3949;49.254;8.894;2022-10-17T05:15:27;9.47;;;4.93;;
7807;SDS011;3949;49.254;8.894;2022-10-17T05:17:53;7.23;;;4.90;;
7807;SDS011;3949;49.254;8.894;2022-10-17T05:20:20;9.87;;;4.93;;
7807;SDS011;3949;49.254;8.894;2022-10-17T05:22:45;9.40;;;5.53;;
7807;SDS011;3949;49.254;8.894;2022-10-17T05:25:11;7.60;;;5.60;;
7807;SDS011;3949;49.254;8.894;2022-10-17T05:27:37;9.70;;;5.20;;
7807;SDS011;3949;49.254;8.894;2022-10-17T05:30:04;9.13;;;5.27;;
7807;SDS011;3949;49.254;8.894;2022-10-17T05:32:30;7.63;;;5.33;;
7807;SDS011;3949;49.254;8.894;2022-10-17T05:34:56;5.30;;;4.37;;
7807;SDS011;3949;49.254;8.894;2022-10-17T05:37:22;5.43;;;4.80;;
7807;SDS011;3949;49.254;8.894;2022-10-17T05:39:48;8.00;;;5.37;;
7807;SDS011;3949;49.254;8.894;2022-10-17T05:42:14;7.93;;;5.10;;
7807;SDS011;3949;49.254;8.894;2022-10-17T05:44:40;5.30;;;4.80;;
7807;SDS011;3949;49.254;8.894;2022-10-17T05:47:07;6.57;;;5.20;;
7807;SDS011;3949;49.254;8.894;2022-10-17T05:49:32;6.47;;;4.90;;
7807;SDS011;3949;49.254;8.894;2022-10-17T05:51:59;5.70;;;4.47;;
7807;SDS011;3949;49.254;8.894;2022-10-17T05:54:25;8.63;;;4.40;;
7807;SDS011;3949;49.254;8.894;2022-10-17T05:56:52;5.67;;;4.47;;
7807;SDS011;3949;49.254;8.894;2022-10-17T05:59:18;4.00;;;3.70;;
7807;SDS011;3949;49.254;8.894;2022-10-17T06:01:44;4.90;;;4.40;;
7807;SDS011;3949;49.254;8.894;2022-10-17T06:04:10;4.17;;;3.77;;
7807;SDS011;3949;49.254;8.894;2022-10-17T06:06:36;4.40;;;3.90;;
7807;SDS011;3949;49.254;8.894;2022-10-17T06:09:02;5.10;;;3.90;;
7807;SDS011;3949;49.254;8.894;2022-10-17T06:11:29;6.87;;;4.73;;
7807;SDS011;3949;49.254;8.894;2022-10-17T06:13:55;10.90;;;8.00;;
7807;SDS011;3949;49.254;8.894;2022-10-17T06:16:21;10.43;;;6.93;;
7807;SDS011;3949;49.254;8.894;2022-10-17T06:18:47;10.17;;;7.43;;
7807;SDS011;3949;49.254;8.894;2022-10-17T06:21:14;8.87;;;6.13;;
7807;SDS011;3949;49.254;8.894;2022-10-17T06:23:41;7.37;;;4.90;;
7807;SDS011;3949;49.254;8.894;2022-10-17T06:26:07;5.47;;;4.47;;
7807;SDS011;3949;49.254;8.894;2022-10-17T06:28:33;6.63;;;5.33;;
7807;SDS011;3949;49.254;8.894;2022-10-17T06:31:03;5.40;;;4.40;;
7807;SDS011;3949;49.254;8.894;2022-10-17T06:33:30;6.27;;;4.60;;
7807;SDS011;3949;49.254;8.894;2022-10-17T06:35:56;5.00;;;4.43;;
7807;SDS011;3949;49.254;8.894;2022-10-17T06:38:22;6.70;;;4.57;;
7807;SDS011;3949;49.254;8.894;2022-10-17T06:40:48;5.03;;;4.47;;
7807;SDS011;3949;49.254;8.894;2022-10-17T06:43:14;8.73;;;5.57;;
7807;SDS011;3949;49.254;8.894;2022-10-17T06:45:40;6.90;;;6.20;;
7807;SDS011;3949;49.254;8.894;2022-10-17T06:48:06;10.23;;;7.00;;
7807;SDS011;3949;49.254;8.894;2022-10-17T06:50:32;10.43;;;7.80;;
7807;SDS011;3949;49.254;8.894;2022-10-17T06:52:58;15.13;;;10.77;;
7807;SDS011;3949;49.254;8.894;2022-10-17T06:55:24;9.33;;;8.00;;
7807;SDS011;3949;49.254;8.894;2022-10-17T06:57:52;10.27;;;6.17;;
7807;SDS011;3949;49.254;8.894;2022-10-17T07:00:18;13.60;;;10.17;;
7807;SDS011;3949;49.254;8.894;2022-10-17T07:02:44;12.50;;;8.50;;
7807;SDS011;3949;49.254;8.894;2022-10-17T07:05:10;7.93;;;6.20;;
7807;SDS011;3949;49.254;8.894;2022-10-17T07:07:36;6.57;;;5.43;;
7807;SDS011;3949;49.254;8.894;2022-10-17T07:10:02;5.20;;;4.70;;
7807;SDS011;3949;49.254;8.894;2022-10-17T07:12:32;5.67;;;4.97;;
7807;SDS011;3949;49.254;8.894;2022-10-17T07:14:58;6.10;;;4.73;;
7807;SDS011;3949;49.254;8.894;2022-10-17T07:17:24;7.53;;;5.60;;
7807;SDS011;3949;49.254;8.894;2022-10-17T07:19:50;7.97;;;6.10;;
7807;SDS011;3949;49.254;8.894;2022-10-17T07:22:16;6.30;;;5.70;;
7807;SDS011;3949;49.254;8.894;2022-10-17T07:24:42;6.33;;;5.60;;
7807;SDS011;3949;49.254;8.894;2022-10-17T07:27:08;8.87;;;6.73;;
7807;SDS011;3949;49.254;8.894;2022-10-17T07:29:34;9.67;;;7.80;;
7807;SDS011;3949;49.254;8.894;2022-10-17T07:32:00;7.97;;;6.07;;
7807;SDS011;3949;49.254;8.894;2022-10-17T07:34:30;7.53;;;5.47;;
7807;SDS011;3949;49.254;8.894;2022-10-17T07:36:56;7.27;;;5.40;;
7807;SDS011;3949;49.254;8.894;2022-10-17T07:39:22;6.03;;;4.57;;
7807;SDS011;3949;49.254;8.894;2022-10-17T07:41:48;5.30;;;4.80;;
7807;SDS011;3949;49.254;8.894;2022-10-17T07:44:14;7.77;;;5.27;;
7807;SDS011;3949;49.254;8.894;2022-10-17T07:46:40;6.50;;;5.10;;
7807;SDS011;3949;49.254;8.894;2022-10-17T07:49:06;6.60;;;4.73;;
7807;SDS011;3949;49.254;8.894;2022-10-17T07:51:32;6.03;;;4.67;;
7807;SDS011;3949;49.254;8.894;2022-10-17T07:53:58;6.63;;;5.03;;
7807;SDS011;3949;49.254;8.894;2022-10-17T07:56:24;5.60;;;4.83;;
7807;SDS011;3949;49.254;8.894;2022-10-17T07:58:51;5.83;;;4.03;;
7807;SDS011;3949;49.254;8.894;2022-10-17T08:01:17;11.40;;;5.50;;
7807;SDS011;3949;49.254;8.894;2022-10-17T08:03:44;9.47;;;5.30;;
7807;SDS011;3949;49.254;8.894;2022-10-17T08:06:10;5.50;;;4.90;;
7807;SDS011;3949;49.254;8.894;2022-10-17T08:08:36;9.67;;;5.90;;
7807;SDS011;3949;49.254;8.894;2022-10-17T08:11:03;6.73;;;5.13;;
7807;SDS011;3949;49.254;8.894;2022-10-17T08:13:30;6.43;;;4.10;;
7807;SDS011;3949;49.254;8.894;2022-10-17T08:15:59;8.07;;;4.80;;
7807;SDS011;3949;49.254;8.894;2022-10-17T08:18:26;4.70;;;4.17;;
7807;SDS011;3949;49.254;8.894;2022-10-17T08:20:52;8.17;;;4.10;;
7807;SDS011;3949;49.254;8.894;2022-10-17T08:23:18;5.47;;;4.23;;
7807;SDS011;3949;49.254;8.894;2022-10-17T08:25:44;4.23;;;3.83;;
7807;SDS011;3949;49.254;8.894;2022-10-17T08:28:10;5.87;;;3.53;;
7807;SDS011;3949;49.254;8.894;2022-10-17T08:30:36;5.50;;;4.00;;
7807;SDS011;3949;49.254;8.894;2022-10-17T08:33:01;6.47;;;4.67;;
7807;SDS011;3949;49.254;8.894;2022-10-17T08:35:27;5.00;;;3.67;;
7807;SDS011;3949;49.254;8.894;2022-10-17T08:37:53;3.63;;;3.33;;
7807;SDS011;3949;49.254;8.894;2022-10-17T08:40:21;3.80;;;3.40;;
7807;SDS011;3949;49.254;8.894;2022-10-17T08:42:59;5.27;;;3.10;;
7807;SDS011;3949;49.254;8.894;2022-10-17T08:45:50;4.20;;;3.63;;
7807;SDS011;3949;49.254;8.894;2022-10-17T08:48:18;5.17;;;3.30;;
7807;SDS011;3949;49.254;8.894;2022-10-17T08:50:50;5.83;;;3.47;;
7807;SDS011;3949;49.254;8.894;2022-10-17T08:55:48;3.50;;;3.13;;
7807;SDS011;3949;49.254;8.894;2022-10-17T08:58:16;4.40;;;3.30;;
7807;SDS011;3949;49.254;8.894;2022-10-17T09:00:46;3.83;;;3.40;;
7807;SDS011;3949;49.254;8.894;2022-10-17T09:03:16;4.07;;;3.63;;
7807;SDS011;3949;49.254;8.894;2022-10-17T09:05:53;6.17;;;3.37;;
7807;SDS011;3949;49.254;8.894;2022-10-17T09:08:43;5.40;;;3.43;;
7807;SDS011;3949;49.254;8.894;2022-10-17T09:13:45;5.57;;;2.90;;
7807;SDS011;3949;49.254;8.894;2022-10-17T09:16:20;4.77;;;3.10;;
7807;SDS011;3949;49.254;8.894;2022-10-17T09:18:55;4.67;;;3.07;;
7807;SDS011;3949;49.254;8.894;2022-10-17T09:21:28;3.83;;;2.80;;
7807;SDS011;3949;49.254;8.894;2022-10-17T09:23:58;2.97;;;2.50;;
7807;SDS011;3949;49.254;8.894;2022-10-17T09:26:26;4.47;;;2.50;;
7807;SDS011;3949;49.254;8.894;2022-10-17T09:28:53;4.37;;;2.50;;
7807;SDS011;3949;49.254;8.894;2022-10-17T09:31:24;3.67;;;2.80;;
7807;SDS011;3949;49.254;8.894;2022-10-17T09:33:54;5.13;;;2.50;;
7807;SDS011;3949;49.254;8.894;2022-10-17T09:36:31;4.77;;;2.50;;
7807;SDS011;3949;49.254;8.894;2022-10-17T09:39:04;5.53;;;2.57;;
7807;SDS011;3949;49.254;8.894;2022-10-17T09:42:05;4.33;;;2.37;;
7807;SDS011;3949;49.254;8.894;2022-10-17T09:46:56;2.47;;;2.27;;
7807;SDS011;3949;49.254;8.894;2022-10-17T09:49:29;2.47;;;2.27;;
7807;SDS011;3949;49.254;8.894;2022-10-17T09:51:56;2.60;;;2.40;;
7807;SDS011;3949;49.254;8.894;2022-10-17T09:54:26;3.87;;;2.27;;
7807;SDS011;3949;49.254;8.894;2022-10-17T10:07:17;3.83;;;2.30;;
7807;SDS011;3949;49.254;8.894;2022-10-17T10:09:45;2.87;;;2.10;;
7807;SDS011;3949;49.254;8.894;2022-10-17T10:12:15;2.67;;;2.40;;
7807;SDS011;3949;49.254;8.894;2022-10-17T10:14:42;3.67;;;2.15;;
7807;SDS011;3949;49.254;8.894;2022-10-17T10:17:27;2.90;;;2.10;;
7807;SDS011;3949;49.254;8.894;2022-10-17T10:19:53;2.83;;;1.98;;
7807;SDS011;3949;49.254;8.894;2022-10-17T10:22:20;3.63;;;2.30;;
7807;SDS011;3949;49.254;8.894;2022-10-17T10:27:32;2.88;;;2.17;;
7807;SDS011;3949;49.254;8.894;2022-10-17T10:29:58;2.97;;;2.20;;
7807;SDS011;3949;49.254;8.894;2022-10-17T10:32:26;5.78;;;2.45;;
7807;SDS011;3949;49.254;8.894;2022-10-17T10:34:53;5.25;;;2.38;;
7807;SDS011;3949;49.254;8.894;2022-10-17T10:37:21;5.05;;;2.40;;
7807;SDS011;3949;49.254;8.894;2022-10-17T10:39:48;2.97;;;2.10;;
7807;SDS011;3949;49.254;8.894;2022-10-17T10:42:25;2.72;;;2.25;;
7807;SDS011;3949;49.254;8.894;2022-10-17T10:44:53;6.63;;;2.22;;
7807;SDS011;3949;49.254;8.894;2022-10-17T10:47:21;7.10;;;2.30;;
7807;SDS011;3949;49.254;8.894;2022-10-17T10:49:52;3.17;;;1.88;;
7807;SDS011;3949;49.254;8.894;2022-10-17T10:52:33;3.92;;;2.10;;
7807;SDS011;3949;49.254;8.894;2022-10-17T10:55:04;2.10;;;1.90;;
7807;SDS011;3949;49.254;8.894;2022-10-17T10:57:34;2.63;;;2.10;;
7807;SDS011;3949;49.254;8.894;2022-10-17T11:00:08;3.25;;;2.50;;
7807;SDS011;3949;49.254;8.894;2022-10-17T11:02:42;6.28;;;2.25;;
7807;SDS011;3949;49.254;8.894;2022-10-17T11:07:41;3.65;;;2.22;;
7807;SDS011;3949;49.254;8.894;2022-10-17T11:10:42;4.57;;;1.95;;
7807;SDS011;3949;49.254;8.894;2022-10-17T11:13:04;3.45;;;2.25;;
7807;SDS011;3949;49.254;8.894;2022-10-17T11:15:34;5.03;;;2.35;;
7807;SDS011;3949;49.254;8.894;2022-10-17T11:20:35;3.35;;;2.03;;
7807;SDS011;3949;49.254;8.894;2022-10-17T11:25:36;4.03;;;2.40;;
7807;SDS011;3949;49.254;8.894;2022-10-17T11:28:03;2.22;;;2.03;;
7807;SDS011;3949;49.254;8.894;2022-10-17T11:30:39;4.07;;;1.95;;
7807;SDS011;3949;49.254;8.894;2022-10-17T11:33:05;2.75;;;2.03;;
7807;SDS011;3949;49.254;8.894;2022-10-17T11:35:38;6.07;;;2.35;;
7807;SDS011;3949;49.254;8.894;2022-10-17T11:38:11;4.22;;;2.22;;
7807;SDS011;3949;49.254;8.894;2022-10-17T11:40:40;9.65;;;2.30;;
7807;SDS011;3949;49.254;8.894;2022-10-17T11:43:12;4.05;;;2.20;;
7807;SDS011;3949;49.254;8.894;2022-10-17T11:45:40;7.88;;;2.47;;
7807;SDS011;3949;49.254;8.894;2022-10-17T11:48:56;2.58;;;1.95;;
7807;SDS011;3949;49.254;8.894;2022-10-17T11:51:15;2.63;;;2.15;;
7807;SDS011;3949;49.254;8.894;2022-10-17T11:56:07;3.70;;;2.20;;
7807;SDS011;3949;49.254;8.894;2022-10-17T12:01:33;6.85;;;2.25;;
7807;SDS011;3949;49.254;8.894;2022-10-17T12:11:57;5.03;;;2.22;;
7807;SDS011;3949;49.254;8.894;2022-10-17T12:17:02;2.88;;;2.20;;
7807;SDS011;3949;49.254;8.894;2022-10-17T12:19:29;3.42;;;2.10;;
7807;SDS011;3949;49.254;8.894;2022-10-17T12:21:57;3.63;;;1.88;;
7807;SDS011;3949;49.254;8.894;2022-10-17T12:26:52;2.97;;;2.00;;
7807;SDS011;3949;49.254;8.894;2022-10-17T12:29:23;3.15;;;1.90;;
7807;SDS011;3949;49.254;8.894;2022-10-17T12:31:51;5.53;;;1.92;;
7807;SDS011;3949;49.254;8.894;2022-10-17T12:34:17;2.88;;;2.10;;
7807;SDS011;3949;49.254;8.894;2022-10-17T12:36:45;4.35;;;2.17;;
7807;SDS011;3949;49.254;8.894;2022-10-17T12:49:18;2.80;;;2.08;;
7807;SDS011;3949;49.254;8.894;2022-10-17T12:54:30;3.90;;;2.17;;
7807;SDS011;3949;49.254;8.894;2022-10-17T12:56:56;3.45;;;2.30;;
7807;SDS011;3949;49.254;8.894;2022-10-17T12:59:28;3.83;;;1.98;;
7807;SDS011;3949;49.254;8.894;2022-10-17T13:01:59;2.00;;;1.85;;
7807;SDS011;3949;49.254;8.894;2022-10-17T13:04:26;2.60;;;2.10;;
7807;SDS011;3949;49.254;8.894;2022-10-17T13:06:53;3.95;;;2.00;;
7807;SDS011;3949;49.254;8.894;2022-10-17T13:11:46;2.67;;;2.05;;
7807;SDS011;3949;49.254;8.894;2022-10-17T13:14:13;2.13;;;1.75;;
7807;SDS011;3949;49.254;8.894;2022-10-17T13:16:51;3.80;;;2.03;;
7807;SDS011;3949;49.254;8.894;2022-10-17T13:19:19;4.05;;;1.98;;
7807;SDS011;3949;49.254;8.894;2022-10-17T13:21:57;3.80;;;2.00;;
7807;SDS011;3949;49.254;8.894;2022-10-17T13:27:00;4.32;;;2.40;;
7807;SDS011;3949;49.254;8.894;2022-10-17T13:29:26;2.22;;;2.03;;
7807;SDS011;3949;49.254;8.894;2022-10-17T13:31:58;2.45;;;2.15;;
7807;SDS011;3949;49.254;8.894;2022-10-17T13:34:28;2.33;;;2.08;;
7807;SDS011;3949;49.254;8.894;2022-10-17T13:36:54;4.30;;;2.28;;
7807;SDS011;3949;49.254;8.894;2022-10-17T13:39:25;3.77;;;2.30;;
7807;SDS011;3949;49.254;8.894;2022-10-17T13:41:52;2.13;;;1.92;;
7807;SDS011;3949;49.254;8.894;2022-10-17T13:44:19;4.70;;;2.33;;
7807;SDS011;3949;49.254;8.894;2022-10-17T13:46:46;2.03;;;1.90;;
7807;SDS011;3949;49.254;8.894;2022-10-17T13:51:42;4.32;;;2.30;;
7807;SDS011;3949;49.254;8.894;2022-10-17T13:54:27;3.38;;;2.08;;
7807;SDS011;3949;49.254;8.894;2022-10-17T13:56:55;3.45;;;2.22;;
7807;SDS011;3949;49.254;8.894;2022-10-17T13:59:23;1.95;;;1.85;;
7807;SDS011;3949;49.254;8.894;2022-10-17T14:01:49;2.47;;;2.00;;
7807;SDS011;3949;49.254;8.894;2022-10-17T14:04:16;2.70;;;2.05;;
7807;SDS011;3949;49.254;8.894;2022-10-17T14:06:42;4.35;;;2.10;;
7807;SDS011;3949;49.254;8.894;2022-10-17T14:09:16;3.10;;;2.00;;
7807;SDS011;3949;49.254;8.894;2022-10-17T14:11:43;6.17;;;1.97;;
7807;SDS011;3949;49.254;8.894;2022-10-17T14:14:17;5.03;;;2.13;;
7807;SDS011;3949;49.254;8.894;2022-10-17T14:16:43;2.67;;;1.97;;
7807;SDS011;3949;49.254;8.894;2022-10-17T14:24:39;5.50;;;2.33;;
7807;SDS011;3949;49.254;8.894;2022-10-17T14:29:52;2.60;;;2.10;;
7807;SDS011;3949;49.254;8.894;2022-10-17T14:32:18;3.33;;;2.23;;
7807;SDS011;3949;49.254;8.894;2022-10-17T14:34:44;4.97;;;2.20;;
7807;SDS011;3949;49.254;8.894;2022-10-17T14:37:40;3.90;;;2.10;;
7807;SDS011;3949;49.254;8.894;2022-10-17T14:40:03;4.20;;;2.40;;
7807;SDS011;3949;49.254;8.894;2022-10-17T14:42:29;4.73;;;2.40;;
7807;SDS011;3949;49.254;8.894;2022-10-17T14:45:02;3.70;;;2.50;;
7807;SDS011;3949;49.254;8.894;2022-10-17T14:47:30;4.33;;;2.67;;
7807;SDS011;3949;49.254;8.894;2022-10-17T14:50:04;3.37;;;2.53;;
7807;SDS011;3949;49.254;8.894;2022-10-17T14:52:30;3.13;;;2.27;;
7807;SDS011;3949;49.254;8.894;2022-10-17T14:54:57;6.00;;;2.87;;
7807;SDS011;3949;49.254;8.894;2022-10-17T14:59:50;6.90;;;2.53;;
7807;SDS011;3949;49.254;8.894;2022-10-17T15:02:16;3.80;;;2.20;;
7807;SDS011;3949;49.254;8.894;2022-10-17T15:04:42;3.73;;;2.60;;
7807;SDS011;3949;49.254;8.894;2022-10-17T15:07:15;2.80;;;2.50;;
7807;SDS011;3949;49.254;8.894;2022-10-17T15:09:41;2.33;;;2.13;;
7807;SDS011;3949;49.254;8.894;2022-10-17T15:12:18;2.73;;;2.10;;
7807;SDS011;3949;49.254;8.894;2022-10-17T15:14:44;3.87;;;2.80;;
7807;SDS011;3949;49.254;8.894;2022-10-17T15:17:13;5.63;;;3.00;;
7807;SDS011;3949;49.254;8.894;2022-10-17T15:19:39;2.63;;;2.10;;
7807;SDS011;3949;49.254;8.894;2022-10-17T15:22:05;5.03;;;2.70;;
7807;SDS011;3949;49.254;8.894;2022-10-17T15:24:31;5.10;;;2.50;;
7807;SDS011;3949;49.254;8.894;2022-10-17T15:26:57;5.50;;;2.50;;
7807;SDS011;3949;49.254;8.894;2022-10-17T15:29:23;8.33;;;2.70;;
7807;SDS011;3949;49.254;8.894;2022-10-17T15:31:49;4.90;;;2.53;;
7807;SDS011;3949;49.254;8.894;2022-10-17T15:34:15;3.90;;;2.70;;
7807;SDS011;3949;49.254;8.894;2022-10-17T15:36:45;2.60;;;2.40;;
7807;SDS011;3949;49.254;8.894;2022-10-17T15:39:13;5.60;;;2.70;;
7807;SDS011;3949;49.254;8.894;2022-10-17T15:41:39;5.87;;;2.60;;
7807;SDS011;3949;49.254;8.894;2022-10-17T15:44:05;3.87;;;2.70;;
7807;SDS011;3949;49.254;8.894;2022-10-17T15:46:34;4.90;;;2.30;;
7807;SDS011;3949;49.254;8.894;2022-10-17T15:49:01;3.00;;;2.40;;
7807;SDS011;3949;49.254;8.894;2022-10-17T15:51:27;3.87;;;2.80;;
7807;SDS011;3949;49.254;8.894;2022-10-17T15:53:53;5.57;;;2.50;;
7807;SDS011;3949;49.254;8.894;2022-10-17T15:56:25;3.20;;;2.90;;
7807;SDS011;3949;49.254;8.894;2022-10-17T15:58:51;5.17;;;2.43;;
7807;SDS011;3949;49.254;8.894;2022-10-17T16:01:19;6.53;;;5.83;;
7807;SDS011;3949;49.254;8.894;2022-10-17T16:03:45;4.30;;;2.80;;
7807;SDS011;3949;49.254;8.894;2022-10-17T16:06:14;5.33;;;2.50;;
7807;SDS011;3949;49.254;8.894;2022-10-17T16:08:40;2.97;;;2.30;;
7807;SDS011;3949;49.254;8.894;2022-10-17T16:11:08;3.60;;;2.23;;
7807;SDS011;3949;49.254;8.894;2022-10-17T16:13:34;4.40;;;2.70;;
7807;SDS011;3949;49.254;8.894;2022-10-17T16:16:01;5.90;;;2.40;;
7807;SDS011;3949;49.254;8.894;2022-10-17T16:18:27;8.03;;;2.90;;
7807;SDS011;3949;49.254;8.894;2022-10-17T16:20:53;4.57;;;2.67;;
7807;SDS011;3949;49.254;8.894;2022-10-17T16:23:19;3.37;;;2.60;;
7807;SDS011;3949;49.254;8.894;2022-10-17T16:25:45;3.70;;;2.70;;
7807;SDS011;3949;49.254;8.894;2022-10-17T16:28:11;3.87;;;2.63;;
7807;SDS011;3949;49.254;8.894;2022-10-17T16:30:39;4.70;;;3.20;;
7807;SDS011;3949;49.254;8.894;2022-10-17T16:33:06;4.73;;;3.67;;
7807;SDS011;3949;49.254;8.894;2022-10-17T16:35:34;5.27;;;4.13;;
7807;SDS011;3949;49.254;8.894;2022-10-17T16:38:00;8.73;;;3.73;;
7807;SDS011;3949;49.254;8.894;2022-10-17T16:40:26;9.37;;;3.57;;
7807;SDS011;3949;49.254;8.894;2022-10-17T16:42:52;6.57;;;3.37;;
7807;SDS011;3949;49.254;8.894;2022-10-17T16:45:19;4.87;;;3.30;;
7807;SDS011;3949;49.254;8.894;2022-10-17T16:47:45;4.27;;;3.30;;
7807;SDS011;3949;49.254;8.894;2022-10-17T16:50:12;5.03;;;4.03;;
7807;SDS011;3949;49.254;8.894;2022-10-17T16:52:38;5.03;;;4.10;;
7807;SDS011;3949;49.254;8.894;2022-10-17T16:55:04;6.77;;;4.20;;
7807;SDS011;3949;49.254;8.894;2022-10-17T16:57:30;7.30;;;4.00;;
7807;SDS011;3949;49.254;8.894;2022-10-17T16:59:56;6.27;;;3.50;;
7807;SDS011;3949;49.254;8.894;2022-10-17T17:02:23;5.20;;;3.77;;
7807;SDS011;3949;49.254;8.894;2022-10-17T17:04:49;4.67;;;3.53;;
7807;SDS011;3949;49.254;8.894;2022-10-17T17:07:15;5.57;;;3.80;;